Terminal Aerodrome Forecast
Issued by NWS

Home | Current Version | Previous Version | Graphics & Text | Print | Product List | Glossary Off
Versions: 1 2 3 4 5 6 7 8 9 10 11 12 13 14 15 16 17 18 19 20 21 22 23 24 25

000
FTUS43 KDDC 260520
TAFHYS
TAF
KHYS 260520Z 2606/2706 08009KT P6SM SCT050
     FM261100 VRB04KT P6SM OVC010
     FM261700 10011KT P6SM BKN045
     FM262300 07011KT P6SM BKN015
      AMD NOT SKED=

USA.gov is the U.S. government's official web portal to all federal, state and local government web resources and services.